Time,TemperatureF,DewpointF,PressureIn,WindDirection,WindDirectionDegrees,WindSpeedMPH,WindSpeedGustMPH,Humidity,HourlyPrecipIn,Conditions,Clouds,dailyrainin,SoftwareType,DateUTC
2013-04-12 00:03:00,27.0,24.0,-100.00,ENE,70,7.0,17.0,88,0.75,,,-99.99,,2013-04-12 05:03:00,
2013-04-12 00:12:00,27.0,24.0,-100.00,ENE,70,7.0,17.0,88,0.75,,,-99.99,,2013-04-12 05:12:00,
2013-04-12 00:22:00,27.0,24.0,-100.00,ENE,70,7.0,17.0,88,0.75,,,-99.99,,2013-04-12 05:22:00,
2013-04-12 00:42:00,27.0,24.0,-100.00,ENE,75,7.0,21.0,88,0.16,,,-99.99,,2013-04-12 05:42:00,
2013-04-12 00:52:00,27.0,24.0,-100.00,ENE,75,7.0,21.0,88,0.16,,,-99.99,,2013-04-12 05:52:00,
2013-04-12 01:02:00,27.0,24.0,-100.00,ENE,75,7.0,21.0,88,0.16,,,-99.99,,2013-04-12 06:02:00,
2013-04-12 01:12:00,27.0,24.0,-100.00,ENE,75,7.0,21.0,88,0.16,,,-99.99,,2013-04-12 06:12:00,
2013-04-12 01:22:00,27.0,24.0,-100.00,ENE,75,7.0,21.0,88,0.16,,,-99.99,,2013-04-12 06:22:00,
2013-04-12 01:52:00,28.0,25.0,-100.00,NE,55,4.0,17.0,88,0.18,,,-99.99,,2013-04-12 06:52:00,
2013-04-12 02:02:00,28.0,25.0,-100.00,NE,55,4.0,17.0,88,0.18,,,-99.99,,2013-04-12 07:02:00,
2013-04-12 02:11:00,28.0,25.0,-100.00,NE,55,4.0,17.0,88,0.18,,,-99.99,,2013-04-12 07:11:00,
2013-04-12 02:22:00,28.0,25.0,-100.00,NE,55,4.0,17.0,88,0.18,,,-99.99,,2013-04-12 07:22:00,
2013-04-12 02:42:00,28.0,25.0,-100.00,East,80,9.0,21.0,88,0.13,,,-99.99,,2013-04-12 07:42:00,
2013-04-12 02:52:00,28.0,25.0,-100.00,East,80,9.0,21.0,88,0.13,,,-99.99,,2013-04-12 07:52:00,
2013-04-12 03:03:00,28.0,25.0,-100.00,East,80,9.0,21.0,88,0.13,,,-99.99,,2013-04-12 08:03:00,
2013-04-12 03:12:00,28.0,25.0,-100.00,East,80,9.0,21.0,88,0.13,,,-99.99,,2013-04-12 08:12:00,
2013-04-12 03:22:00,28.0,25.0,-100.00,East,80,9.0,21.0,88,0.13,,,-99.99,,2013-04-12 08:22:00,
2013-04-12 03:52:00,28.0,25.0,-100.00,ENE,75,7.0,21.0,88,0.67,,,-99.99,,2013-04-12 08:52:00,
2013-04-12 04:02:00,28.0,25.0,-100.00,ENE,75,7.0,21.0,88,0.67,,,-99.99,,2013-04-12 09:02:00,
2013-04-12 04:12:00,28.0,25.0,-100.00,ENE,75,7.0,21.0,88,0.67,,,-99.99,,2013-04-12 09:12:00,
2013-04-12 04:22:00,28.0,25.0,-100.00,ENE,75,7.0,21.0,88,0.67,,,-99.99,,2013-04-12 09:22:00,
2013-04-12 04:53:00,28.0,25.0,-100.00,East,90,12.0,20.0,88,0.06,,,-99.99,,2013-04-12 09:53:00,
2013-04-12 05:03:00,28.0,25.0,-100.00,East,90,12.0,20.0,88,0.06,,,-99.99,,2013-04-12 10:03:00,
2013-04-12 05:12:00,28.0,25.0,-100.00,East,90,12.0,20.0,88,0.06,,,-99.99,,2013-04-12 10:12:00,
2013-04-12 05:23:00,28.0,25.0,-100.00,East,90,12.0,20.0,88,0.06,,,-99.99,,2013-04-12 10:23:00,
2013-04-12 05:53:00,28.0,25.0,-100.00,East,90,11.0,22.0,87,0.17,,,-99.99,,2013-04-12 10:53:00,
2013-04-12 06:02:00,28.0,25.0,-100.00,East,90,11.0,22.0,87,0.17,,,-99.99,,2013-04-12 11:02:00,
2013-04-12 06:13:00,28.0,25.0,-100.00,East,90,11.0,22.0,87,0.17,,,-99.99,,2013-04-12 11:13:00,
2013-04-12 06:22:00,28.0,25.0,-100.00,East,90,11.0,22.0,87,0.17,,,-99.99,,2013-04-12 11:22:00,
2013-04-12 06:52:00,28.0,24.0,-100.00,East,90,9.0,22.0,87,0.10,,,-99.99,,2013-04-12 11:52:00,
2013-04-12 07:02:00,28.0,24.0,-100.00,East,90,9.0,22.0,87,0.10,,,-99.99,,2013-04-12 12:02:00,
2013-04-12 07:13:00,28.0,24.0,-100.00,East,90,9.0,22.0,87,0.10,,,-99.99,,2013-04-12 12:13:00,
2013-04-12 07:22:00,28.0,24.0,-100.00,East,90,9.0,22.0,87,0.10,,,-99.99,,2013-04-12 12:22:00,
2013-04-12 07:43:00,27.0,24.0,-100.00,ENE,65,10.0,22.0,86,0.28,,,-99.99,,2013-04-12 12:43:00,
2013-04-12 07:53:00,27.0,24.0,-100.00,ENE,65,10.0,22.0,86,0.28,,,-99.99,,2013-04-12 12:53:00,
2013-04-12 08:03:00,27.0,24.0,-100.00,ENE,65,10.0,22.0,86,0.28,,,-99.99,,2013-04-12 13:03:00,
2013-04-12 08:12:00,27.0,23.0,-100.00,NE,50,7.0,27.0,85,0.38,,,-99.99,,2013-04-12 13:12:00,
2013-04-12 08:22:00,27.0,23.0,-100.00,NE,50,7.0,27.0,85,0.38,,,-99.99,,2013-04-12 13:22:00,
2013-04-12 08:32:00,27.0,23.0,-100.00,NE,50,7.0,27.0,85,0.38,,,-99.99,,2013-04-12 13:32:00,
2013-04-12 08:42:00,27.0,23.0,-100.00,East,90,12.0,21.0,85,0.52,,,-99.99,,2013-04-12 13:42:00,
2013-04-12 08:53:00,27.0,23.0,-100.00,East,90,12.0,21.0,85,0.52,,,-99.99,,2013-04-12 13:53:00,
2013-04-12 09:03:00,27.0,22.0,-100.00,ENE,75,6.0,23.0,83,0.44,,,-99.99,,2013-04-12 14:03:00,
2013-04-12 09:13:00,27.0,22.0,-100.00,ENE,75,6.0,23.0,83,0.44,,,-99.99,,2013-04-12 14:13:00,
2013-04-12 09:22:00,27.0,22.0,-100.00,ENE,75,6.0,23.0,83,0.44,,,-99.99,,2013-04-12 14:22:00,
2013-04-12 09:32:00,27.0,22.0,-100.00,ENE,75,6.0,23.0,83,0.44,,,-99.99,,2013-04-12 14:32:00,
2013-04-12 09:42:00,27.0,23.0,-100.00,ENE,75,9.0,20.0,84,0.99,,,-99.99,,2013-04-12 14:42:00,
2013-04-12 09:53:00,27.0,23.0,-100.00,ENE,75,9.0,20.0,84,0.99,,,-99.99,,2013-04-12 14:53:00,
2013-04-12 10:02:00,28.0,23.0,-100.00,ENE,65,7.0,18.0,84,1.16,,,-99.99,,2013-04-12 15:02:00,
2013-04-12 10:12:00,28.0,23.0,-100.00,ENE,65,7.0,18.0,84,1.16,,,-99.99,,2013-04-12 15:12:00,
2013-04-12 10:22:00,28.0,23.0,-100.00,ENE,65,7.0,18.0,84,1.16,,,-99.99,,2013-04-12 15:22:00,
2013-04-12 10:33:00,28.0,23.0,-100.00,ENE,65,7.0,18.0,84,1.16,,,-99.99,,2013-04-12 15:33:00,
2013-04-12 10:43:00,28.0,24.0,-100.00,East,95,9.0,17.0,83,0.48,,,-99.99,,2013-04-12 15:43:00,
2013-04-12 10:53:00,28.0,24.0,-100.00,East,95,9.0,17.0,83,0.48,,,-99.99,,2013-04-12 15:53:00,
2013-04-12 11:04:00,29.0,24.0,-100.00,ENE,70,5.0,12.0,83,0.62,,,-99.99,,2013-04-12 16:04:00,
2013-04-12 11:13:00,29.0,24.0,-100.00,ENE,70,5.0,12.0,83,0.62,,,-99.99,,2013-04-12 16:13:00,
2013-04-12 11:23:00,29.0,24.0,-100.00,ENE,70,5.0,12.0,83,0.62,,,-99.99,,2013-04-12 16:23:00,
2013-04-12 11:33:00,29.0,24.0,-100.00,ENE,70,5.0,12.0,83,0.62,,,-99.99,,2013-04-12 16:33:00,
2013-04-12 11:42:00,29.0,23.0,-100.00,ENE,60,7.0,16.0,78,0.20,,,-99.99,,2013-04-12 16:42:00,
2013-04-12 11:53:00,29.0,23.0,-100.00,ENE,60,7.0,16.0,78,0.20,,,-99.99,,2013-04-12 16:53:00,
2013-04-12 12:03:00,30.0,23.0,-100.00,ENE,75,6.0,12.0,77,0.48,,,-99.99,,2013-04-12 17:03:00,
2013-04-12 12:12:00,30.0,23.0,-100.00,ENE,75,6.0,12.0,77,0.48,,,-99.99,,2013-04-12 17:12:00,
2013-04-12 12:22:00,30.0,23.0,-100.00,ENE,75,6.0,12.0,77,0.48,,,-99.99,,2013-04-12 17:22:00,
2013-04-12 12:33:00,30.0,23.0,-100.00,ENE,75,6.0,12.0,77,0.48,,,-99.99,,2013-04-12 17:33:00,
2013-04-12 12:44:00,30.0,23.0,-100.00,ENE,70,8.0,17.0,77,0.31,,,-99.99,,2013-04-12 17:44:00,
2013-04-12 13:06:00,30.0,23.0,-100.00,ENE,70,8.0,17.0,77,0.31,,,-99.99,,2013-04-12 18:06:00,
2013-04-12 14:26:00,31.0,23.0,-100.00,NE,35,6.0,14.0,72,0.21,,,-99.99,,2013-04-12 19:26:00,
2013-04-12 14:32:00,31.0,23.0,-100.00,NE,35,6.0,14.0,72,0.21,,,-99.99,,2013-04-12 19:32:00,
2013-04-12 14:42:00,32.0,23.0,-100.00,ENE,60,4.0,14.0,71,0.11,,,-99.99,,2013-04-12 19:42:00,
2013-04-12 14:53:00,30.0,24.0,-100.00,NE,45,4.0,14.0,76,0.23,,,-99.99,,2013-04-12 19:53:00,
2013-04-12 15:02:00,32.0,23.0,-100.00,North,0,5.0,11.0,68,0.04,,,-99.99,,2013-04-12 20:02:00,
2013-04-12 15:12:00,32.0,23.0,-100.00,North,0,5.0,11.0,68,0.04,,,-99.99,,2013-04-12 20:12:00,
2013-04-12 15:22:00,32.0,23.0,-100.00,North,0,5.0,11.0,68,0.04,,,-99.99,,2013-04-12 20:22:00,
2013-04-12 15:32:00,32.0,23.0,-100.00,North,0,5.0,11.0,68,0.04,,,-99.99,,2013-04-12 20:32:00,
2013-04-12 15:42:00,32.0,23.0,-100.00,North,0,5.0,11.0,68,0.04,,,-99.99,,2013-04-12 20:42:00,
2013-04-12 15:52:00,31.0,21.0,-100.00,East,80,7.0,13.0,66,0.13,,,-99.99,,2013-04-12 20:52:00,
2013-04-12 16:02:00,31.0,21.0,-100.00,East,80,7.0,13.0,66,0.13,,,-99.99,,2013-04-12 21:02:00,
2013-04-12 16:12:00,31.0,21.0,-100.00,East,80,7.0,13.0,66,0.13,,,-99.99,,2013-04-12 21:12:00,
2013-04-12 16:22:00,31.0,21.0,-100.00,East,80,7.0,13.0,66,0.13,,,-99.99,,2013-04-12 21:22:00,
2013-04-12 16:53:00,32.0,21.0,-100.00,NE,50,4.0,14.0,62,0.01,,,-99.99,,2013-04-12 21:53:00,
2013-04-12 17:02:00,32.0,21.0,-100.00,NE,50,4.0,14.0,62,0.01,,,-99.99,,2013-04-12 22:02:00,
2013-04-12 17:13:00,32.0,21.0,-100.00,NE,50,4.0,14.0,62,0.01,,,-99.99,,2013-04-12 22:13:00,
2013-04-12 17:22:00,32.0,21.0,-100.00,NE,50,4.0,14.0,62,0.01,,,-99.99,,2013-04-12 22:22:00,
2013-04-12 17:52:00,30.0,18.0,-100.00,NE,45,6.0,16.0,59,0.03,,,-99.99,,2013-04-12 22:52:00,
2013-04-12 18:03:00,30.0,18.0,-100.00,NE,45,6.0,16.0,59,0.03,,,-99.99,,2013-04-12 23:03:00,
2013-04-12 18:12:00,30.0,18.0,-100.00,NE,45,6.0,16.0,59,0.03,,,-99.99,,2013-04-12 23:12:00,
2013-04-12 18:22:00,30.0,18.0,-100.00,NE,45,6.0,16.0,59,0.03,,,-99.99,,2013-04-12 23:22:00,
2013-04-12 18:52:00,28.0,18.0,-100.00,ENE,65,7.0,19.0,66,0.13,,,-99.99,,2013-04-12 23:52:00,
2013-04-12 19:02:00,28.0,18.0,-100.00,ENE,65,7.0,19.0,66,0.13,,,-99.99,,2013-04-13 00:02:00,
2013-04-12 19:12:00,28.0,18.0,-100.00,ENE,65,7.0,19.0,66,0.13,,,-99.99,,2013-04-13 00:12:00,
2013-04-12 19:22:00,28.0,18.0,-100.00,ENE,65,7.0,19.0,66,0.13,,,-99.99,,2013-04-13 00:22:00,
2013-04-12 19:52:00,28.0,19.0,-100.00,NE,45,3.0,9.0,69,0.03,,,-99.99,,2013-04-13 00:52:00,
2013-04-12 20:02:00,28.0,19.0,-100.00,NE,45,3.0,9.0,69,0.03,,,-99.99,,2013-04-13 01:02:00,
2013-04-12 20:13:00,28.0,19.0,-100.00,NE,45,3.0,9.0,69,0.03,,,-99.99,,2013-04-13 01:13:00,
2013-04-12 20:22:00,28.0,19.0,-100.00,NE,45,3.0,9.0,69,0.03,,,-99.99,,2013-04-13 01:22:00,
2013-04-12 20:52:00,26.0,18.0,-100.00,NE,35,4.0,10.0,73,0.37,,,-99.99,,2013-04-13 01:52:00,
2013-04-12 21:02:00,26.0,18.0,-100.00,NE,35,4.0,10.0,73,0.37,,,-99.99,,2013-04-13 02:02:00,
2013-04-12 21:12:00,26.0,18.0,-100.00,NE,35,4.0,10.0,73,0.37,,,-99.99,,2013-04-13 02:12:00,
2013-04-12 21:22:00,26.0,18.0,-100.00,NE,35,4.0,10.0,73,0.37,,,-99.99,,2013-04-13 02:22:00,
2013-04-12 21:53:00,25.0,19.0,-100.00,NNW,335,2.0,5.0,78,0.01,,,-99.99,,2013-04-13 02:53:00,
2013-04-12 22:02:00,25.0,19.0,-100.00,NNW,335,2.0,5.0,78,0.01,,,-99.99,,2013-04-13 03:02:00,
2013-04-12 22:12:00,25.0,19.0,-100.00,NNW,335,2.0,5.0,78,0.01,,,-99.99,,2013-04-13 03:12:00,
2013-04-12 22:23:00,25.0,19.0,-100.00,NNW,335,2.0,5.0,78,0.01,,,-99.99,,2013-04-13 03:23:00,
2013-04-12 22:53:00,24.0,19.0,-100.00,NW,315,2.0,5.0,80,0.01,,,-99.99,,2013-04-13 03:53:00,
2013-04-12 23:03:00,24.0,19.0,-100.00,NW,315,2.0,5.0,80,0.01,,,-99.99,,2013-04-13 04:03:00,
2013-04-12 23:12:00,24.0,19.0,-100.00,NW,315,2.0,5.0,80,0.01,,,-99.99,,2013-04-13 04:12:00,
2013-04-12 23:23:00,24.0,19.0,-100.00,NW,315,2.0,5.0,80,0.01,,,-99.99,,2013-04-13 04:23:00,
2013-04-12 23:53:00,23.0,18.0,-100.00,WNW,285,2.0,4.0,81,0.00,,,-99.99,,2013-04-13 04:53:00,